createdAt,value
2018-08-28T00:01:34.525Z,19.50
2018-08-28T00:04:03.043Z,19.50
2018-08-28T00:06:31.457Z,19.60
2018-08-28T00:08:59.677Z,19.70
2018-08-28T00:11:27.984Z,19.70
2018-08-28T00:13:56.519Z,19.70
2018-08-28T00:16:24.855Z,19.80
2018-08-28T00:18:53.483Z,19.80
2018-08-28T00:21:21.807Z,19.80
2018-08-28T00:23:50.096Z,19.80
2018-08-28T00:26:18.490Z,19.80
2018-08-28T00:28:46.762Z,19.80
2018-08-28T00:31:15.169Z,19.80
2018-08-28T00:33:43.811Z,19.80
2018-08-28T00:36:12.241Z,19.80
2018-08-28T00:38:40.892Z,19.80
2018-08-28T00:41:09.286Z,19.80
2018-08-28T00:43:38.053Z,19.80
2018-08-28T00:46:06.515Z,19.80
2018-08-28T00:48:34.948Z,19.80
2018-08-28T00:51:03.349Z,19.80
2018-08-28T00:53:31.778Z,19.80
2018-08-28T00:56:00.080Z,19.80
2018-08-28T00:58:28.337Z,19.80
2018-08-28T01:00:56.657Z,19.80
2018-08-28T01:03:25.375Z,19.80
2018-08-28T01:05:53.731Z,19.70
2018-08-28T01:08:22.090Z,19.60
2018-08-28T01:10:50.554Z,19.60
2018-08-28T01:13:19.229Z,19.50
2018-08-28T01:15:47.504Z,19.40
2018-08-28T01:18:15.962Z,19.40
2018-08-28T01:20:44.278Z,19.40
2018-08-28T01:23:12.825Z,19.40
2018-08-28T01:25:41.247Z,19.40
2018-08-28T01:28:09.573Z,19.50
2018-08-28T01:30:39.057Z,19.50
2018-08-28T01:33:07.359Z,19.50
2018-08-28T01:35:35.980Z,19.60
2018-08-28T01:38:04.537Z,19.60
2018-08-28T01:40:32.822Z,19.50
2018-08-28T01:43:01.382Z,19.50
2018-08-28T01:45:29.915Z,19.40
2018-08-28T01:47:58.145Z,19.40
2018-08-28T01:50:26.933Z,19.30
2018-08-28T01:52:55.265Z,19.30
2018-08-28T01:55:23.655Z,19.30
2018-08-28T01:57:51.949Z,19.30
2018-08-28T02:00:27.266Z,19.30
2018-08-28T02:02:55.608Z,19.40
2018-08-28T02:05:23.934Z,19.30
2018-08-28T02:07:52.392Z,19.20
2018-08-28T02:10:20.691Z,19.20
2018-08-28T02:12:49.106Z,19.10
2018-08-28T02:15:17.370Z,19.10
2018-08-28T02:17:45.646Z,19.10
2018-08-28T02:20:14.127Z,19.10
2018-08-28T02:22:42.393Z,19.20
2018-08-28T02:25:11.724Z,19.20
2018-08-28T02:27:40.001Z,19.20
2018-08-28T02:30:08.252Z,19.10
2018-08-28T02:32:36.519Z,19.00
2018-08-28T02:35:04.822Z,18.90
2018-08-28T02:37:33.137Z,18.80
2018-08-28T02:40:01.545Z,18.90
2018-08-28T02:42:30.597Z,18.90
2018-08-28T02:45:04.575Z,19.00
2018-08-28T02:47:32.788Z,19.00
2018-08-28T02:50:01.173Z,19.00
2018-08-28T02:52:29.480Z,18.90
2018-08-28T02:54:57.788Z,19.00
2018-08-28T02:57:26.138Z,19.00
2018-08-28T02:59:54.481Z,19.00
2018-08-28T03:02:22.776Z,19.00
2018-08-28T03:04:51.042Z,19.00
2018-08-28T03:07:19.443Z,18.90
2018-08-28T03:09:48.891Z,19.00
2018-08-28T03:12:17.246Z,18.90
2018-08-28T03:14:45.521Z,18.90
2018-08-28T03:17:13.817Z,18.80
2018-08-28T03:19:42.057Z,18.90
2018-08-28T03:22:11.154Z,18.90
2018-08-28T03:24:39.542Z,18.90
2018-08-28T03:27:07.846Z,18.90
2018-08-28T03:29:36.060Z,19.00
2018-08-28T03:32:04.429Z,19.00
2018-08-28T03:34:32.753Z,19.00
2018-08-28T03:37:01.117Z,19.00
2018-08-28T03:39:29.445Z,19.00
2018-08-28T03:41:58.030Z,19.00
2018-08-28T03:44:33.198Z,19.00
2018-08-28T03:47:01.846Z,18.90
2018-08-28T03:49:30.352Z,18.90
2018-08-28T03:51:58.726Z,18.70
2018-08-28T03:54:27.056Z,18.70
2018-08-28T03:56:55.760Z,18.70
2018-08-28T03:59:24.227Z,18.70
2018-08-28T04:01:52.739Z,18.70
2018-08-28T04:04:21.664Z,18.70
2018-08-28T04:06:50.699Z,18.80
2018-08-28T04:09:19.287Z,18.80
2018-08-28T04:11:47.790Z,18.80
2018-08-28T04:14:16.096Z,18.80
2018-08-28T04:16:44.670Z,18.80
2018-08-28T04:19:13.076Z,18.80
2018-08-28T04:21:41.922Z,18.90
2018-08-28T04:24:10.301Z,18.90
2018-08-28T04:26:38.586Z,18.90
2018-08-28T04:29:06.930Z,18.90
2018-08-28T04:31:35.294Z,18.90
2018-08-28T04:34:03.584Z,18.80
2018-08-28T04:36:32.095Z,18.80
2018-08-28T04:39:00.577Z,18.80
2018-08-28T04:41:30.289Z,18.90
2018-08-28T04:43:58.905Z,18.90
2018-08-28T04:46:27.293Z,18.80
2018-08-28T04:48:55.633Z,18.80
2018-08-28T04:51:24.746Z,18.80
2018-08-28T04:53:53.034Z,18.80
2018-08-28T04:56:21.460Z,18.80
2018-08-28T04:58:49.904Z,18.70
2018-08-28T05:01:18.706Z,18.60
2018-08-28T05:03:47.151Z,18.70
2018-08-28T05:06:15.539Z,18.70
2018-08-28T05:08:43.920Z,18.70
2018-08-28T05:11:12.377Z,18.70
2018-08-28T05:13:40.663Z,18.80
2018-08-28T05:16:08.933Z,18.80
2018-08-28T05:18:37.448Z,18.70
2018-08-28T05:21:05.946Z,18.70
2018-08-28T05:23:35.092Z,18.70
2018-08-28T05:26:03.376Z,18.70
2018-08-28T05:28:31.745Z,18.80
2018-08-28T05:31:00.471Z,18.80
2018-08-28T05:33:28.975Z,18.80
2018-08-28T05:35:57.506Z,18.80
2018-08-28T05:38:25.873Z,18.70
2018-08-28T05:40:54.732Z,18.70
2018-08-28T05:43:23.879Z,18.60
2018-08-28T05:45:52.315Z,18.60
2018-08-28T05:48:20.786Z,18.60
2018-08-28T05:50:49.594Z,18.60
2018-08-28T05:53:20.705Z,18.60
2018-08-28T05:55:50.342Z,18.50
2018-08-28T05:58:25.915Z,18.50
2018-08-28T06:00:54.188Z,18.50
2018-08-28T06:03:22.657Z,18.50
2018-08-28T06:05:50.861Z,18.50
2018-08-28T06:08:19.544Z,18.50
2018-08-28T06:10:48.127Z,18.50
2018-08-28T06:13:16.959Z,18.50
2018-08-28T06:15:45.722Z,18.60
2018-08-28T06:18:14.251Z,18.60
2018-08-28T06:20:42.959Z,18.60
2018-08-28T06:23:11.488Z,18.70
2018-08-28T06:25:39.801Z,18.70
2018-08-28T06:28:08.197Z,18.70
2018-08-28T06:30:36.958Z,18.60
2018-08-28T06:33:06.203Z,18.50
2018-08-28T06:35:36.476Z,18.60
2018-08-28T06:38:05.069Z,18.60
2018-08-28T06:40:33.841Z,18.60
2018-08-28T06:43:02.715Z,18.70
2018-08-28T06:45:31.524Z,18.70
2018-08-28T06:48:00.073Z,18.80
2018-08-28T06:50:29.501Z,18.90
2018-08-28T06:52:58.905Z,18.90
2018-08-28T06:55:27.409Z,18.80
2018-08-28T06:57:57.305Z,18.80
2018-08-28T07:00:25.658Z,18.80
2018-08-28T07:02:54.076Z,19.00
2018-08-28T07:05:22.692Z,19.00
2018-08-28T07:07:51.616Z,19.10
2018-08-28T07:10:19.969Z,19.20
2018-08-28T07:12:48.990Z,19.20
2018-08-28T07:15:17.763Z,19.20
2018-08-28T07:17:46.155Z,19.10
2018-08-28T07:20:14.655Z,19.10
2018-08-28T07:22:43.346Z,19.10
2018-08-28T07:25:12.130Z,19.10
2018-08-28T07:27:40.514Z,19.10
2018-08-28T07:30:09.453Z,19.20
2018-08-28T07:32:38.840Z,19.30
2018-08-28T07:35:07.190Z,19.20
2018-08-28T07:37:35.685Z,19.20
2018-08-28T07:40:04.055Z,19.10
2018-08-28T07:42:32.589Z,19.20
2018-08-28T07:45:01.918Z,19.20
2018-08-28T07:47:30.265Z,19.30
2018-08-28T07:49:58.706Z,19.30
2018-08-28T07:52:27.148Z,19.30
2018-08-28T07:54:56.343Z,19.40
2018-08-28T07:57:24.659Z,19.40
2018-08-28T07:59:53.354Z,19.40
2018-08-28T08:02:21.669Z,19.40
2018-08-28T08:04:50.044Z,19.40
2018-08-28T08:07:18.355Z,19.50
2018-08-28T08:09:46.751Z,19.50
2018-08-28T08:12:15.186Z,19.60
2018-08-28T08:14:43.490Z,19.60
2018-08-28T08:17:11.963Z,19.70
2018-08-28T08:19:40.418Z,19.60
2018-08-28T08:22:08.856Z,19.60
2018-08-28T08:24:37.187Z,19.60
2018-08-28T08:27:05.738Z,19.70
2018-08-28T08:29:34.149Z,19.70
2018-08-28T08:32:02.730Z,19.80
2018-08-28T08:34:31.249Z,19.80
2018-08-28T08:36:59.681Z,19.80
2018-08-28T08:39:28.691Z,20.00
2018-08-28T08:41:57.105Z,20.00
2018-08-28T08:44:26.540Z,20.10
2018-08-28T08:46:55.026Z,20.10
2018-08-28T08:49:23.643Z,20.20
2018-08-28T08:51:52.050Z,20.20
2018-08-28T08:54:20.359Z,20.30
2018-08-28T08:56:49.216Z,20.40
2018-08-28T08:59:17.727Z,20.40
2018-08-28T09:01:46.957Z,20.50
2018-08-28T09:04:15.207Z,20.50
2018-08-28T09:06:43.571Z,20.60
2018-08-28T09:09:12.265Z,20.50
2018-08-28T09:11:40.686Z,20.40
2018-08-28T09:14:09.098Z,20.50
2018-08-28T09:16:37.647Z,20.60
2018-08-28T09:19:06.022Z,20.70
2018-08-28T09:21:34.509Z,20.80
2018-08-28T09:24:03.011Z,20.90
2018-08-28T09:26:31.312Z,21.00
2018-08-28T09:29:00.115Z,21.10
2018-08-28T09:31:28.531Z,21.30
2018-08-28T09:34:03.736Z,21.30
2018-08-28T09:36:32.224Z,21.30
2018-08-28T09:39:01.103Z,21.30
2018-08-28T09:41:29.769Z,21.40
2018-08-28T09:43:58.665Z,21.30
2018-08-28T09:46:27.479Z,21.30
2018-08-28T09:48:57.793Z,21.30
2018-08-28T09:51:26.508Z,21.30
2018-08-28T09:53:55.037Z,21.30
2018-08-28T09:56:23.490Z,21.30
2018-08-28T09:58:51.864Z,21.30
2018-08-28T10:01:25.679Z,21.40
2018-08-28T10:03:54.117Z,21.50
2018-08-28T10:06:23.306Z,21.60
2018-08-28T10:08:51.827Z,21.70
2018-08-28T10:11:21.564Z,21.70
2018-08-28T10:13:50.039Z,21.70
2018-08-28T10:16:18.390Z,21.70
2018-08-28T10:18:46.868Z,21.60
2018-08-28T10:21:15.318Z,21.60
2018-08-28T10:23:43.956Z,21.60
2018-08-28T10:26:12.541Z,21.60
2018-08-28T10:28:40.918Z,21.50
2018-08-28T10:31:09.278Z,21.60
2018-08-28T10:33:37.748Z,21.60
2018-08-28T10:36:07.741Z,21.70
2018-08-28T10:38:36.435Z,21.70
2018-08-28T10:41:04.927Z,21.70
2018-08-28T10:43:33.312Z,21.70
2018-08-28T10:46:03.169Z,21.70
2018-08-28T10:48:32.450Z,21.70
2018-08-28T10:51:00.783Z,21.70
2018-08-28T10:53:29.804Z,21.70
2018-08-28T10:55:59.097Z,21.70
2018-08-28T10:58:28.205Z,21.70
2018-08-28T11:00:56.754Z,21.60
2018-08-28T11:03:25.097Z,21.60
2018-08-28T11:05:53.573Z,21.60
2018-08-28T11:08:22.689Z,21.50
2018-08-28T11:10:51.386Z,21.40
2018-08-28T11:13:19.871Z,21.50
2018-08-28T11:15:49.129Z,21.40
2018-08-28T11:18:18.269Z,21.50
2018-08-28T11:20:46.591Z,21.50
2018-08-28T11:23:14.983Z,21.60
2018-08-28T11:25:44.107Z,21.70
2018-08-28T11:28:13.690Z,21.70
2018-08-28T11:30:42.176Z,21.80
2018-08-28T11:33:10.718Z,21.90
2018-08-28T11:35:39.201Z,21.90
2018-08-28T11:38:07.540Z,22.00
2018-08-28T11:40:36.305Z,22.10
2018-08-28T11:43:04.619Z,22.10
2018-08-28T11:45:33.201Z,22.10
2018-08-28T11:48:01.660Z,22.10
2018-08-28T11:50:30.338Z,22.10
2018-08-28T11:52:58.713Z,22.10
2018-08-28T11:55:29.287Z,22.20
2018-08-28T11:57:57.761Z,22.30
2018-08-28T12:00:26.202Z,22.30
2018-08-28T12:02:54.897Z,22.30
2018-08-28T12:05:23.652Z,22.30
2018-08-28T12:07:52.258Z,22.30
2018-08-28T12:10:20.961Z,22.30
2018-08-28T12:12:49.498Z,22.20
2018-08-28T12:15:18.610Z,22.20
2018-08-28T12:17:47.810Z,22.10
2018-08-28T12:20:17.069Z,22.10
2018-08-28T12:22:45.410Z,22.00
2018-08-28T12:25:14.011Z,22.10
2018-08-28T12:27:42.641Z,22.10
2018-08-28T12:30:11.902Z,22.00
2018-08-28T12:32:40.492Z,22.00
2018-08-28T12:35:09.109Z,22.10
2018-08-28T12:37:37.752Z,22.20
2018-08-28T12:40:06.320Z,22.20
2018-08-28T12:42:34.901Z,22.20
2018-08-28T12:45:03.615Z,22.30
2018-08-28T12:47:32.189Z,22.30
2018-08-28T12:50:02.203Z,22.30
2018-08-28T12:52:31.198Z,22.50
2018-08-28T12:54:59.862Z,22.60
2018-08-28T12:57:28.226Z,22.50
2018-08-28T12:59:56.724Z,22.50
2018-08-28T13:02:25.339Z,22.50
2018-08-28T13:04:54.275Z,22.50
2018-08-28T13:07:23.101Z,22.50
2018-08-28T13:09:51.794Z,22.60
2018-08-28T13:12:20.074Z,22.80
2018-08-28T13:14:48.584Z,22.90
2018-08-28T13:17:17.028Z,23.10
2018-08-28T13:19:46.998Z,23.10
2018-08-28T13:22:15.657Z,23.10
2018-08-28T13:24:44.240Z,23.10
2018-08-28T13:27:13.641Z,23.00
2018-08-28T13:29:42.451Z,22.90
2018-08-28T13:32:10.872Z,22.80
2018-08-28T13:34:39.339Z,22.90
2018-08-28T13:37:07.672Z,22.90
2018-08-28T13:39:36.584Z,22.90
2018-08-28T13:42:05.109Z,22.80
2018-08-28T13:44:36.091Z,22.90
2018-08-28T13:47:04.632Z,22.90
2018-08-28T13:49:32.883Z,23.00
2018-08-28T13:52:02.575Z,23.00
2018-08-28T13:54:31.255Z,23.00
2018-08-28T13:57:00.567Z,23.00
2018-08-28T13:59:29.096Z,23.10
2018-08-28T14:01:57.612Z,23.10
2018-08-28T14:04:26.275Z,23.20
2018-08-28T14:06:54.889Z,23.20
2018-08-28T14:09:23.780Z,23.20
2018-08-28T14:11:52.358Z,23.20
2018-08-28T14:14:22.101Z,23.10
2018-08-28T14:16:50.523Z,23.10
2018-08-28T14:19:18.939Z,23.10
2018-08-28T14:21:47.434Z,23.20
2018-08-28T14:24:15.878Z,23.10
2018-08-28T14:26:44.397Z,23.10
2018-08-28T14:29:13.903Z,23.00
2018-08-28T14:31:42.238Z,23.00
2018-08-28T14:34:10.854Z,23.00
2018-08-28T14:36:39.186Z,23.00
2018-08-28T14:39:07.873Z,23.00
2018-08-28T14:41:37.176Z,23.00
2018-08-28T14:44:05.753Z,23.10
2018-08-28T14:46:34.780Z,23.10
2018-08-28T14:49:03.277Z,23.00
2018-08-28T14:51:31.610Z,23.10
2018-08-28T14:54:00.197Z,23.00
2018-08-28T14:56:28.790Z,23.00
2018-08-28T14:58:57.593Z,22.90
2018-08-28T15:01:26.451Z,22.90
2018-08-28T15:03:54.888Z,22.80
2018-08-28T15:06:23.315Z,22.70
2018-08-28T15:08:51.892Z,22.70
2018-08-28T15:11:20.244Z,22.70
2018-08-28T15:13:49.309Z,22.70
2018-08-28T15:16:17.855Z,22.70
2018-08-28T15:18:46.670Z,22.70
2018-08-28T15:21:15.226Z,22.60
2018-08-28T15:23:43.616Z,22.60
2018-08-28T15:26:12.018Z,22.50
2018-08-28T15:28:40.619Z,22.60
2018-08-28T15:31:09.167Z,22.50
2018-08-28T15:33:37.661Z,22.60
2018-08-28T15:36:06.015Z,22.50
2018-08-28T15:38:34.800Z,22.50
2018-08-28T15:41:03.498Z,22.50
2018-08-28T15:43:32.175Z,22.60
2018-08-28T15:46:00.688Z,22.60
2018-08-28T15:48:28.962Z,22.60
2018-08-28T15:50:57.344Z,22.60
2018-08-28T15:53:25.896Z,22.60
2018-08-28T15:55:54.191Z,22.60
2018-08-28T15:58:22.450Z,22.60
2018-08-28T16:00:52.670Z,22.50
2018-08-28T16:03:21.048Z,22.50
2018-08-28T16:05:49.436Z,22.50
2018-08-28T16:08:18.086Z,22.40
2018-08-28T16:10:46.519Z,22.40
2018-08-28T16:13:15.573Z,22.40
2018-08-28T16:15:44.102Z,22.40
2018-08-28T16:18:12.881Z,22.30
2018-08-28T16:20:41.676Z,22.30
2018-08-28T16:23:14.458Z,22.30
2018-08-28T16:25:44.264Z,22.20
2018-08-28T16:28:13.057Z,22.20
2018-08-28T16:33:19.551Z,22.20
2018-08-28T16:35:48.258Z,22.20
2018-08-28T16:38:16.865Z,22.20
2018-08-28T16:40:45.460Z,22.20
2018-08-28T16:43:14.201Z,22.10
2018-08-28T16:45:44.305Z,22.10
2018-08-28T16:48:13.103Z,22.10
2018-08-28T16:50:41.866Z,22.10
2018-08-28T16:53:10.304Z,22.00
2018-08-28T16:55:38.783Z,22.00
2018-08-28T16:58:07.946Z,22.00
2018-08-28T17:00:37.077Z,22.10
2018-08-28T17:03:05.841Z,22.00
2018-08-28T17:05:40.890Z,22.00
2018-08-28T17:08:09.683Z,22.00
2018-08-28T17:10:38.271Z,22.00
2018-08-28T17:13:07.352Z,22.00
2018-08-28T17:15:35.909Z,22.00
2018-08-28T17:18:04.737Z,22.00
2018-08-28T17:20:33.193Z,22.00
2018-08-28T17:23:01.802Z,22.10
2018-08-28T17:25:30.565Z,22.10
2018-08-28T17:27:59.060Z,22.10
2018-08-28T17:30:27.721Z,22.10
2018-08-28T17:32:56.325Z,22.00
2018-08-28T17:35:25.311Z,22.00
2018-08-28T17:37:55.224Z,21.90
2018-08-28T17:40:24.748Z,21.90
2018-08-28T17:42:53.920Z,21.90
2018-08-28T17:45:22.400Z,21.80
2018-08-28T17:47:51.424Z,21.80
2018-08-28T17:50:20.277Z,21.70
2018-08-28T17:52:48.966Z,21.70
2018-08-28T17:55:17.619Z,21.70
2018-08-28T17:57:46.344Z,21.60
2018-08-28T18:00:15.568Z,21.60
2018-08-28T18:02:44.198Z,21.60
2018-08-28T18:05:12.657Z,21.50
2018-08-28T18:07:41.184Z,21.50
2018-08-28T18:10:09.708Z,21.50
2018-08-28T18:12:38.685Z,21.50
2018-08-28T18:15:07.857Z,21.50
2018-08-28T18:17:36.888Z,21.40
2018-08-28T18:20:05.871Z,21.40
2018-08-28T18:22:35.091Z,21.40
2018-08-28T18:25:03.929Z,21.40
2018-08-28T18:27:33.121Z,21.40
2018-08-28T18:30:02.747Z,21.40
2018-08-28T18:32:31.029Z,21.30
2018-08-28T18:35:00.861Z,21.30
2018-08-28T18:37:29.885Z,21.30
2018-08-28T18:39:59.580Z,21.30
2018-08-28T18:42:28.285Z,21.20
2018-08-28T18:44:57.263Z,21.20
2018-08-28T18:47:26.032Z,21.20
2018-08-28T18:49:54.473Z,21.10
2018-08-28T18:52:23.533Z,21.10
2018-08-28T18:54:52.176Z,21.10
2018-08-28T18:57:20.709Z,21.10
2018-08-28T18:59:49.190Z,21.10
2018-08-28T19:02:17.984Z,21.10
2018-08-28T19:04:46.641Z,21.10
2018-08-28T19:07:15.421Z,21.10
2018-08-28T19:09:44.380Z,21.00
2018-08-28T19:12:13.273Z,21.00
2018-08-28T19:14:42.186Z,21.00
2018-08-28T19:17:12.152Z,21.00
2018-08-28T19:19:40.983Z,21.00
2018-08-28T19:22:16.076Z,21.00
2018-08-28T19:24:44.889Z,21.00
2018-08-28T19:27:17.635Z,20.90
2018-08-28T19:29:46.204Z,20.90
2018-08-28T19:32:14.663Z,20.90
2018-08-28T19:34:44.201Z,20.90
2018-08-28T19:37:12.854Z,20.90
2018-08-28T19:39:41.850Z,20.90
2018-08-28T19:42:10.823Z,20.90
2018-08-28T19:44:40.206Z,20.90
2018-08-28T19:47:09.386Z,20.90
2018-08-28T19:49:39.024Z,20.90
2018-08-28T19:52:08.695Z,20.90
2018-08-28T19:54:37.239Z,20.90
2018-08-28T19:57:07.004Z,20.80
2018-08-28T19:59:35.978Z,20.80
2018-08-28T20:02:05.346Z,20.80
2018-08-28T20:04:34.301Z,20.80
2018-08-28T20:07:04.916Z,20.80
2018-08-28T20:09:33.824Z,20.80
2018-08-28T20:12:03.706Z,20.80
2018-08-28T20:14:34.264Z,20.90
2018-08-28T20:17:03.758Z,20.90
2018-08-28T20:19:33.072Z,20.80
2018-08-28T20:22:03.051Z,20.80
2018-08-28T20:24:45.407Z,20.90
2018-08-28T20:27:15.362Z,20.80
2018-08-28T20:29:49.859Z,20.90
2018-08-28T20:32:21.338Z,20.80
2018-08-28T20:35:02.493Z,20.80
2018-08-28T20:37:49.119Z,20.80
2018-08-28T20:43:06.513Z,20.80
2018-08-28T20:45:44.370Z,20.80
2018-08-28T20:48:19.583Z,20.80
2018-08-28T20:50:50.626Z,20.70
2018-08-28T20:53:19.864Z,20.80
2018-08-28T20:58:40.002Z,20.80
2018-08-28T21:01:09.873Z,20.80
2018-08-28T21:03:40.359Z,20.70
2018-08-28T21:06:11.702Z,20.70
2018-08-28T21:08:42.073Z,20.70
2018-08-28T21:11:12.707Z,20.70
2018-08-28T21:13:46.819Z,20.70
2018-08-28T21:16:15.765Z,20.70
2018-08-28T21:18:45.183Z,20.70
2018-08-28T21:21:21.809Z,20.70
2018-08-28T21:23:53.948Z,20.70
2018-08-28T21:26:23.560Z,20.70
2018-08-28T21:29:01.786Z,20.70
2018-08-28T21:31:35.406Z,20.60
2018-08-28T21:34:04.180Z,20.60
2018-08-28T21:36:36.445Z,20.60
2018-08-28T21:39:15.660Z,20.60
2018-08-28T21:41:52.657Z,20.50
2018-08-28T21:44:21.475Z,20.50
2018-08-28T21:46:50.223Z,20.50
2018-08-28T21:49:19.001Z,20.40
2018-08-28T21:51:47.888Z,20.40
2018-08-28T21:54:16.435Z,20.40
2018-08-28T21:56:45.581Z,20.30
2018-08-28T21:59:14.762Z,20.30
2018-08-28T22:01:43.438Z,20.30
2018-08-28T22:04:12.246Z,20.20
2018-08-28T22:06:46.070Z,20.20
2018-08-28T22:09:14.630Z,20.20
2018-08-28T22:11:43.091Z,20.20
2018-08-28T22:14:12.539Z,20.20
2018-08-28T22:16:40.995Z,20.10
2018-08-28T22:19:09.294Z,20.10
2018-08-28T22:21:37.653Z,20.10
2018-08-28T22:24:06.049Z,20.10
2018-08-28T22:26:34.503Z,20.10
2018-08-28T22:29:03.014Z,20.10
2018-08-28T22:31:31.357Z,20.10
2018-08-28T22:33:59.964Z,20.10
2018-08-28T22:36:34.399Z,20.10
2018-08-28T22:39:02.986Z,20.10
2018-08-28T22:41:31.385Z,20.00
2018-08-28T22:43:59.697Z,20.00
2018-08-28T22:46:28.197Z,20.00
2018-08-28T22:48:56.668Z,20.00
2018-08-28T22:51:25.178Z,20.00
2018-08-28T22:53:53.577Z,19.90
2018-08-28T22:56:21.968Z,19.90
2018-08-28T22:58:50.361Z,19.90
2018-08-28T23:01:18.762Z,20.00
2018-08-28T23:03:47.203Z,19.90
2018-08-28T23:06:15.534Z,19.90
2018-08-28T23:08:44.696Z,19.90
2018-08-28T23:11:13.051Z,19.80
2018-08-28T23:13:41.397Z,19.80
2018-08-28T23:16:09.670Z,19.80
2018-08-28T23:18:37.890Z,19.80
2018-08-28T23:21:06.181Z,19.80
2018-08-28T23:23:34.428Z,19.80
2018-08-28T23:26:02.809Z,19.80
2018-08-28T23:28:31.024Z,19.70
2018-08-28T23:30:59.366Z,19.70
2018-08-28T23:33:27.716Z,19.70
2018-08-28T23:35:56.033Z,19.70
2018-08-28T23:38:25.316Z,19.70
2018-08-28T23:40:53.588Z,19.70
2018-08-28T23:43:22.116Z,19.70
2018-08-28T23:45:50.439Z,19.60
2018-08-28T23:48:18.698Z,19.70
2018-08-28T23:50:46.924Z,19.70
2018-08-28T23:53:15.190Z,19.70
2018-08-28T23:55:43.537Z,19.70
2018-08-28T23:58:11.856Z,19.60
